Time;durP1;ratioP1;P1;durP2;ratioP2;P2;SDS_P1;SDS_P2;PMS_P1;PMS_P2;Temp;Humidity;BMP_temperature;BMP_pressure;BME280_temperature;BME280_humidity;BME280_pressure;Samples;Min_cycle;Max_cycle;Signal;HPM_P1;HPM_P2
2021/11/16 00:00:56;;;;;;;;;;;;;;;;;;2048648;28;1860;-86
2021/11/16 00:01:58;;;;;;;;;;;;;;;;;;2026969;29;1445;-85
2021/11/16 00:02:59;;;;;;;;;;;;;;;;;;2035037;29;2113;-86
2021/11/16 00:04:00;;;;;;;;;;;;;;;;;;2042384;29;1284;-86
2021/11/16 00:05:01;;;;;;;;;;;;;;;;;;2042274;29;1206;-86
2021/11/16 00:06:03;;;;;;;;;;;;;;;;;;2042666;29;2000;-85
2021/11/16 00:07:05;;;;;;;;;;;;;;;;;;2034320;29;1313;-85
2021/11/16 00:08:07;;;;;;;;;;;;;;;;;;2032366;29;1912;-86
2021/11/16 00:09:08;;;;;;;;;;;;;;;;;;2026670;29;1035;-86
2021/11/16 00:10:10;;;;;;;;;;;;;;;;;;2034678;29;1359;-85
2021/11/16 00:11:11;;;;;;;;;;;;;;;;;;2034708;29;1838;-86
2021/11/16 00:12:12;;;;;;;;;;;;;;;;;;2026926;29;1345;-86
2021/11/16 00:13:13;;;;;;;;;;;;;;;;;;2035183;29;1919;-85
2021/11/16 00:14:15;;;;;;;;;;;;;;;;;;2042547;29;1204;-86
2021/11/16 00:15:17;;;;;;;;;;;;;;;;;;2042195;29;1272;-85
2021/11/16 00:16:20;;;;;;;;;;;;;;;;;;2042302;28;1966;-85
2021/11/16 00:17:20;;;;;;;;;;;;;;;;;;2026655;29;1223;-85
2021/11/16 00:18:26;;;;;;;;;;;;;;;;;;2030959;29;1876;-87
2021/11/16 00:19:28;;;;;;;;;;;;;;;;;;2042261;29;1199;-86
2021/11/16 00:20:31;;;;;;;;;;;;;;;;;;2042447;29;1231;-85
2021/11/16 00:21:32;;;;;;;;;;;;;;;;;;2038948;29;2087;-85
2021/11/16 00:22:34;;;;;;;;;;;;;;;;;;2042375;29;1245;-86
2021/11/16 00:23:36;;;;;;;;;;;;;;;;;;2042254;29;1310;-85
2021/11/16 00:24:38;;;;;;;;;;;;;;;;;;2042551;29;1205;-86
2021/11/16 00:25:39;;;;;;;;;;;;;;;;;;2042051;29;1906;-86
2021/11/16 00:26:40;;;;;;;;;;;;;;;;;;2022139;29;1927;-86
2021/11/16 00:27:43;;;;;;;;;;;;;;;;;;2026525;29;1094;-86
2021/11/16 00:28:43;;;;;;;;;;;;;;;;;;2034405;29;1867;-86
2021/11/16 00:29:45;;;;;;;;;;;;;;;;;;2034232;29;786;-86
2021/11/16 00:30:48;;;;;;;;;;;;;;;;;;2026762;29;1166;-86
2021/11/16 00:31:49;;;;;;;;;;;;;;;;;;2034885;29;2036;-85
2021/11/16 00:32:50;;;;;;;;;;;;;;;;;;2042618;28;1959;-85
2021/11/16 00:33:53;;;;;;;;;;;;;;;;;;2042169;29;1256;-87
2021/11/16 00:34:54;;;;;;;;;;;;;;;;;;2042266;29;1078;-86
2021/11/16 00:35:56;;;;;;;;;;;;;;;;;;2034144;29;2061;-86
2021/11/16 00:36:57;;;;;;;;;;;;;;;;;;2034360;29;1315;-86
2021/11/16 00:37:58;;;;;;;;;;;;;;;;;;2034330;29;1265;-86
2021/11/16 00:39:00;;;;;;;;;;;;;;;;;;2034260;29;1243;-86
2021/11/16 00:40:03;;;;;;;;;;;;;;;;;;2034453;29;1217;-86
2021/11/16 00:41:05;;;;;;;;;;;;;;;;;;2033087;29;1938;-86
2021/11/16 00:42:06;;;;;;;;;;;;;;;;;;2034445;29;993;-85
2021/11/16 00:43:08;;;;;;;;;;;;;;;;;;2037528;29;2055;-85
2021/11/16 00:44:09;;;;;;;;;;;;;;;;;;2049925;29;1189;-87
2021/11/16 00:45:13;;;;;;;;;;;;;;;;;;2050206;29;1290;-86
2021/11/16 00:46:16;;;;;;;;;;;;;;;;;;2034048;29;1911;-87
2021/11/16 00:47:17;;;;;;;;;;;;;;;;;;2034443;29;1106;-86
2021/11/16 00:48:22;;;;;;;;;;;;;;;;;;2034974;29;807;-85
2021/11/16 00:49:23;;;;;;;;;;;;;;;;;;2034278;29;1320;-86
2021/11/16 00:50:25;;;;;;;;;;;;;;;;;;2042230;29;1388;-88
2021/11/16 00:51:25;;;;;;;;;;;;;;;;;;2038599;29;2094;-86
2021/11/16 00:52:27;;;;;;;;;;;;;;;;;;2034272;29;1254;-85
2021/11/16 00:53:31;;;;;;;;;;;;;;;;;;2043941;29;2101;-87
2021/11/16 00:54:31;;;;;;;;;;;;;;;;;;2041852;29;1296;-85
2021/11/16 00:55:33;;;;;;;;;;;;;;;;;;2041861;29;1379;-85
2021/11/16 00:56:34;;;;;;;;;;;;;;;;;;2041952;28;1792;-86
2021/11/16 00:57:35;;;;;;;;;;;;;;;;;;2026539;29;1399;-86
2021/11/16 00:58:37;;;;;;;;;;;;;;;;;;2026351;29;1317;-85
2021/11/16 00:59:38;;;;;;;;;;;;;;;;;;2034144;29;1079;-85
2021/11/16 01:00:40;;;;;;;;;;;;;;;;;;2026605;29;1259;-86
2021/11/16 01:01:44;;;;;;;;;;;;;;;;;;2040527;29;1878;-85
2021/11/16 01:02:45;;;;;;;;;;;;;;;;;;2049485;28;1360;-86
2021/11/16 01:03:47;;;;;;;;;;;;;;;;;;2034066;29;1250;-86
2021/11/16 01:04:49;;;;;;;;;;;;;;;;;;2034409;29;949;-85
2021/11/16 01:05:51;;;;;;;;;;;;;;;;;;2042442;29;1914;-85
2021/11/16 01:06:52;;;;;;;;;;;;;;;;;;2035284;29;1016;-86
2021/11/16 01:07:54;;;;;;;;;;;;;;;;;;2042703;28;1898;-86
2021/11/16 01:08:55;;;;;;;;;;;;;;;;;;2042135;29;1207;-85
2021/11/16 01:09:56;;;;;;;;;;;;;;;;;;2033974;29;861;-86
2021/11/16 01:10:58;;;;;;;;;;;;;;;;;;2034491;29;1857;-87
2021/11/16 01:11:58;;;;;;;;;;;;;;;;;;2049514;28;1421;-86
2021/11/16 01:13:00;;;;;;;;;;;;;;;;;;2047810;28;1942;-86
2021/11/16 01:14:01;;;;;;;;;;;;;;;;;;2034051;29;1257;-87
2021/11/16 01:15:04;;;;;;;;;;;;;;;;;;2033900;29;1289;-87
2021/11/16 01:16:06;;;;;;;;;;;;;;;;;;2040763;29;1928;-88
2021/11/16 01:17:09;;;;;;;;;;;;;;;;;;2041907;29;1218;-86
2021/11/16 01:18:10;;;;;;;;;;;;;;;;;;2042139;29;2101;-87
2021/11/16 01:19:11;;;;;;;;;;;;;;;;;;2041668;29;1296;-87
2021/11/16 01:20:15;;;;;;;;;;;;;;;;;;2034262;29;774;-87
2021/11/16 01:21:16;;;;;;;;;;;;;;;;;;2042487;28;1777;-88
2021/11/16 01:22:17;;;;;;;;;;;;;;;;;;2042024;29;818;-87
2021/11/16 01:23:20;;;;;;;;;;;;;;;;;;2034611;29;1891;-88
2021/11/16 01:24:20;;;;;;;;;;;;;;;;;;2041872;29;1211;-87
2021/11/16 01:25:23;;;;;;;;;;;;;;;;;;2041820;29;1282;-87
2021/11/16 01:26:24;;;;;;;;;;;;;;;;;;2033430;29;1939;-91
2021/11/16 01:27:26;;;;;;;;;;;;;;;;;;2034087;29;810;-89
2021/11/16 01:28:29;;;;;;;;;;;;;;;;;;2034425;29;1851;-88
2021/11/16 01:29:29;;;;;;;;;;;;;;;;;;2034145;29;1215;-87
2021/11/16 01:30:32;;;;;;;;;;;;;;;;;;2026136;29;1299;-88
2021/11/16 01:31:34;;;;;;;;;;;;;;;;;;2034733;29;2057;-87
2021/11/16 01:32:39;;;;;;;;;;;;;;;;;;2041869;29;1253;-87
2021/11/16 01:33:41;;;;;;;;;;;;;;;;;;2034270;29;1908;-87
2021/11/16 01:34:46;;;;;;;;;;;;;;;;;;2034124;29;916;-88
2021/11/16 01:35:47;;;;;;;;;;;;;;;;;;2041780;29;1351;-87
2021/11/16 01:36:49;;;;;;;;;;;;;;;;;;2042485;28;1880;-88
2021/11/16 01:37:49;;;;;;;;;;;;;;;;;;2034984;29;1899;-88
2021/11/16 01:38:52;;;;;;;;;;;;;;;;;;2034775;29;865;-88
2021/11/16 01:39:53;;;;;;;;;;;;;;;;;;2034787;29;1000;-87
2021/11/16 01:40:55;;;;;;;;;;;;;;;;;;2041842;28;1880;-87
2021/11/16 01:41:56;;;;;;;;;;;;;;;;;;2049430;29;1311;-88
2021/11/16 01:42:59;;;;;;;;;;;;;;;;;;2040494;29;1875;-88
2021/11/16 01:44:00;;;;;;;;;;;;;;;;;;2034083;29;1222;-87
2021/11/16 01:45:03;;;;;;;;;;;;;;;;;;2026093;29;1230;-89
2021/11/16 01:46:05;;;;;;;;;;;;;;;;;;2033642;29;1957;-86
2021/11/16 01:47:07;;;;;;;;;;;;;;;;;;2041680;29;1317;-88
2021/11/16 01:48:09;;;;;;;;;;;;;;;;;;2041698;29;1870;-87
2021/11/16 01:49:11;;;;;;;;;;;;;;;;;;2033847;29;1201;-88
2021/11/16 01:50:12;;;;;;;;;;;;;;;;;;2034291;29;960;-88
2021/11/16 01:51:15;;;;;;;;;;;;;;;;;;2036442;29;1861;-87
2021/11/16 01:52:16;;;;;;;;;;;;;;;;;;2041979;29;1261;-88
2021/11/16 01:53:17;;;;;;;;;;;;;;;;;;2037955;29;1819;-87
2021/11/16 01:54:19;;;;;;;;;;;;;;;;;;2034177;29;1247;-87
2021/11/16 01:55:21;;;;;;;;;;;;;;;;;;2025811;29;1357;-87
2021/11/16 01:56:23;;;;;;;;;;;;;;;;;;2026646;29;1882;-88
2021/11/16 01:57:24;;;;;;;;;;;;;;;;;;2026062;29;1261;-88
2021/11/16 01:58:26;;;;;;;;;;;;;;;;;;2026173;29;2159;-88
2021/11/16 01:59:27;;;;;;;;;;;;;;;;;;2025911;29;1294;-88
2021/11/16 02:00:30;;;;;;;;;;;;;;;;;;2026212;29;1270;-88
2021/11/16 02:01:31;;;;;;;;;;;;;;;;;;2026092;29;1122;-87
2021/11/16 02:02:33;;;;;;;;;;;;;;;;;;2025939;29;1332;-87
2021/11/16 02:03:35;;;;;;;;;;;;;;;;;;2026369;29;1873;-87
2021/11/16 02:04:37;;;;;;;;;;;;;;;;;;2026240;29;1326;-86
2021/11/16 02:05:39;;;;;;;;;;;;;;;;;;2025913;29;1298;-85
2021/11/16 02:06:42;;;;;;;;;;;;;;;;;;2033852;29;1907;-87
2021/11/16 02:07:43;;;;;;;;;;;;;;;;;;2033749;29;838;-87
2021/11/16 02:08:45;;;;;;;;;;;;;;;;;;2026559;29;2033;-88
2021/11/16 02:09:45;;;;;;;;;;;;;;;;;;2033717;29;1278;-88
2021/11/16 02:10:48;;;;;;;;;;;;;;;;;;2034117;29;1329;-89
2021/11/16 02:11:49;;;;;;;;;;;;;;;;;;2025996;29;2054;-88
2021/11/16 02:12:51;;;;;;;;;;;;;;;;;;2026959;29;1925;-88
2021/11/16 02:13:51;;;;;;;;;;;;;;;;;;2025674;29;1236;-89
2021/11/16 02:14:53;;;;;;;;;;;;;;;;;;2026180;29;1321;-89
2021/11/16 02:15:54;;;;;;;;;;;;;;;;;;2033707;29;1174;-89
2021/11/16 02:16:56;;;;;;;;;;;;;;;;;;2033850;29;1341;-87
2021/11/16 02:17:56;;;;;;;;;;;;;;;;;;2025852;29;2032;-87
2021/11/16 02:19:00;;;;;;;;;;;;;;;;;;2025996;29;980;-88
2021/11/16 02:20:01;;;;;;;;;;;;;;;;;;2033830;29;1338;-86
2021/11/16 02:21:04;;;;;;;;;;;;;;;;;;2034003;29;1276;-88
2021/11/16 02:22:06;;;;;;;;;;;;;;;;;;2041657;29;1211;-87
2021/11/16 02:23:07;;;;;;;;;;;;;;;;;;2038900;29;1987;-87
2021/11/16 02:24:09;;;;;;;;;;;;;;;;;;2019295;29;1420;-87
2021/11/16 02:25:10;;;;;;;;;;;;;;;;;;2019863;29;1386;-87
2021/11/16 02:26:13;;;;;;;;;;;;;;;;;;2028370;29;1764;-87
2021/11/16 02:27:13;;;;;;;;;;;;;;;;;;2027586;29;1887;-87
2021/11/16 02:28:16;;;;;;;;;;;;;;;;;;2039522;29;1914;-88
2021/11/16 02:29:18;;;;;;;;;;;;;;;;;;2043167;29;880;-89
2021/11/16 02:30:20;;;;;;;;;;;;;;;;;;2043185;29;1258;-87
2021/11/16 02:31:21;;;;;;;;;;;;;;;;;;2042966;29;1271;-89
2021/11/16 02:32:22;;;;;;;;;;;;;;;;;;2043313;29;1180;-89
2021/11/16 02:33:24;;;;;;;;;;;;;;;;;;2038485;29;1970;-89
2021/11/16 02:34:25;;;;;;;;;;;;;;;;;;2027450;29;1207;-90
2021/11/16 02:35:27;;;;;;;;;;;;;;;;;;2027461;29;1190;-92
2021/11/16 02:36:30;;;;;;;;;;;;;;;;;;2035272;29;1842;-89
2021/11/16 02:37:32;;;;;;;;;;;;;;;;;;2035048;29;1238;-89
2021/11/16 02:38:33;;;;;;;;;;;;;;;;;;2041432;29;2199;-87
2021/11/16 02:39:35;;;;;;;;;;;;;;;;;;2043171;29;1222;-89
2021/11/16 02:40:36;;;;;;;;;;;;;;;;;;2043293;29;1209;-86
2021/11/16 02:41:38;;;;;;;;;;;;;;;;;;2037224;29;1866;-86
2021/11/16 02:42:39;;;;;;;;;;;;;;;;;;2035430;29;1376;-88
2021/11/16 02:43:41;;;;;;;;;;;;;;;;;;2042476;29;1841;-89
2021/11/16 02:44:42;;;;;;;;;;;;;;;;;;2035156;29;961;-86
2021/11/16 02:45:43;;;;;;;;;;;;;;;;;;2035116;29;1337;-89
2021/11/16 02:46:44;;;;;;;;;;;;;;;;;;2043126;29;1906;-88
2021/11/16 02:47:46;;;;;;;;;;;;;;;;;;2042521;29;1863;-87
2021/11/16 02:48:47;;;;;;;;;;;;;;;;;;2027882;29;1251;-87
2021/11/16 02:49:49;;;;;;;;;;;;;;;;;;2027326;29;1318;-87
2021/11/16 02:50:50;;;;;;;;;;;;;;;;;;2027491;29;1238;-87
2021/11/16 02:51:53;;;;;;;;;;;;;;;;;;2027298;29;1409;-86
2021/11/16 02:52:54;;;;;;;;;;;;;;;;;;2028536;29;1864;-86
2021/11/16 02:53:56;;;;;;;;;;;;;;;;;;2035599;29;1135;-87
2021/11/16 02:54:56;;;;;;;;;;;;;;;;;;2035786;29;1252;-87
2021/11/16 02:55:58;;;;;;;;;;;;;;;;;;2035623;29;1869;-88
2021/11/16 02:57:04;;;;;;;;;;;;;;;;;;2035163;29;1214;-87
2021/11/16 02:58:06;;;;;;;;;;;;;;;;;;2033666;29;1892;-87
2021/11/16 02:59:07;;;;;;;;;;;;;;;;;;2034907;29;1112;-86
2021/11/16 03:00:11;;;;;;;;;;;;;;;;;;2035282;29;968;-86
2021/11/16 03:01:12;;;;;;;;;;;;;;;;;;2035857;29;1841;-87
2021/11/16 03:02:14;;;;;;;;;;;;;;;;;;2035121;29;1391;-87
2021/11/16 03:03:15;;;;;;;;;;;;;;;;;;2031794;29;1931;-89
2021/11/16 03:04:20;;;;;;;;;;;;;;;;;;2027380;29;933;-87
2021/11/16 03:05:21;;;;;;;;;;;;;;;;;;2034910;29;1286;-87
2021/11/16 03:06:23;;;;;;;;;;;;;;;;;;2046686;28;2032;-87
2021/11/16 03:07:32;;;;;;;;;;;;;;;;;;2042834;29;1982;-86
2021/11/16 03:08:35;;;;;;;;;;;;;;;;;;2029906;29;1766;-87
2021/11/16 03:09:36;;;;;;;;;;;;;;;;;;2034851;29;1397;-88
2021/11/16 03:10:38;;;;;;;;;;;;;;;;;;2035040;29;1329;-87
2021/11/16 03:11:38;;;;;;;;;;;;;;;;;;2035625;29;1851;-87
2021/11/16 03:12:40;;;;;;;;;;;;;;;;;;2035003;29;1162;-87
2021/11/16 03:13:41;;;;;;;;;;;;;;;;;;2035590;29;1950;-88
2021/11/16 03:14:43;;;;;;;;;;;;;;;;;;2034972;29;1377;-86
2021/11/16 03:15:43;;;;;;;;;;;;;;;;;;2034895;29;943;-86
2021/11/16 03:16:47;;;;;;;;;;;;;;;;;;2048793;29;1889;-87
2021/11/16 03:17:48;;;;;;;;;;;;;;;;;;2050285;29;1910;-88
2021/11/16 03:18:50;;;;;;;;;;;;;;;;;;2043189;29;1318;-87
2021/11/16 03:19:51;;;;;;;;;;;;;;;;;;2042410;29;1243;-86
2021/11/16 03:20:54;;;;;;;;;;;;;;;;;;2034883;29;1937;-87
2021/11/16 03:21:55;;;;;;;;;;;;;;;;;;2042386;29;1280;-87
2021/11/16 03:23:08;;;;;;;;;;;;;;;;;;2034240;29;1989;-87
2021/11/16 03:24:11;;;;;;;;;;;;;;;;;;2035333;29;975;-87
2021/11/16 03:25:13;;;;;;;;;;;;;;;;;;2034854;29;1247;-87
2021/11/16 03:26:14;;;;;;;;;;;;;;;;;;2035630;29;1834;-87
2021/11/16 03:27:17;;;;;;;;;;;;;;;;;;2034730;29;1964;-88
2021/11/16 03:28:20;;;;;;;;;;;;;;;;;;2035638;29;1888;-86
2021/11/16 03:29:24;;;;;;;;;;;;;;;;;;2034549;29;1255;-87
2021/11/16 03:30:25;;;;;;;;;;;;;;;;;;2035077;29;1234;-88
2021/11/16 03:31:37;;;;;;;;;;;;;;;;;;2033818;29;2018;-87
2021/11/16 03:32:38;;;;;;;;;;;;;;;;;;2035355;29;925;-86
2021/11/16 03:33:40;;;;;;;;;;;;;;;;;;2027984;29;1943;-87
2021/11/16 03:34:41;;;;;;;;;;;;;;;;;;2026891;29;1252;-86
2021/11/16 03:35:43;;;;;;;;;;;;;;;;;;2033648;29;1313;-88
2021/11/16 03:36:44;;;;;;;;;;;;;;;;;;2034037;29;1866;-86
2021/11/16 03:37:48;;;;;;;;;;;;;;;;;;2034307;29;1943;-89
2021/11/16 03:38:51;;;;;;;;;;;;;;;;;;2034621;29;1381;-87
2021/11/16 03:39:53;;;;;;;;;;;;;;;;;;2034783;29;1376;-88
2021/11/16 03:40:56;;;;;;;;;;;;;;;;;;2035088;29;1866;-87
2021/11/16 03:41:56;;;;;;;;;;;;;;;;;;2042465;29;1040;-87
2021/11/16 03:42:58;;;;;;;;;;;;;;;;;;2041587;29;1896;-88
2021/11/16 03:43:59;;;;;;;;;;;;;;;;;;2035000;29;1346;-87
2021/11/16 03:45:01;;;;;;;;;;;;;;;;;;2042530;29;1270;-88
2021/11/16 03:46:01;;;;;;;;;;;;;;;;;;2042558;28;2028;-86
2021/11/16 03:47:03;;;;;;;;;;;;;;;;;;2034783;29;1923;-86
2021/11/16 03:48:05;;;;;;;;;;;;;;;;;;2029454;29;1885;-86
2021/11/16 03:49:09;;;;;;;;;;;;;;;;;;2034988;29;1257;-86
2021/11/16 03:50:12;;;;;;;;;;;;;;;;;;2042609;29;1383;-86
2021/11/16 03:51:14;;;;;;;;;;;;;;;;;;2042874;28;1877;-86
2021/11/16 03:52:18;;;;;;;;;;;;;;;;;;2034822;29;1302;-86
2021/11/16 03:53:20;;;;;;;;;;;;;;;;;;2035217;29;1948;-86
2021/11/16 03:54:22;;;;;;;;;;;;;;;;;;2034557;29;1410;-89
2021/11/16 03:55:25;;;;;;;;;;;;;;;;;;2042364;29;1384;-88
2021/11/16 03:56:25;;;;;;;;;;;;;;;;;;2038336;29;2064;-88
2021/11/16 03:57:29;;;;;;;;;;;;;;;;;;2026984;29;833;-89
2021/11/16 03:58:30;;;;;;;;;;;;;;;;;;2027106;29;1209;-88
2021/11/16 03:59:31;;;;;;;;;;;;;;;;;;2026875;29;1266;-88
2021/11/16 04:00:34;;;;;;;;;;;;;;;;;;2034818;29;1210;-87
2021/11/16 04:01:36;;;;;;;;;;;;;;;;;;2034809;29;1234;-87
2021/11/16 04:02:36;;;;;;;;;;;;;;;;;;2026979;29;1260;-87
2021/11/16 04:03:39;;;;;;;;;;;;;;;;;;2027333;29;1912;-87
2021/11/16 04:04:42;;;;;;;;;;;;;;;;;;2034767;29;763;-87
2021/11/16 04:05:44;;;;;;;;;;;;;;;;;;2034730;29;1239;-87
2021/11/16 04:06:45;;;;;;;;;;;;;;;;;;2035077;29;1921;-87
2021/11/16 04:07:46;;;;;;;;;;;;;;;;;;2034565;29;1923;-87
2021/11/16 04:08:49;;;;;;;;;;;;;;;;;;2034819;29;1338;-87
2021/11/16 04:09:51;;;;;;;;;;;;;;;;;;2034524;29;1189;-87
2021/11/16 04:10:52;;;;;;;;;;;;;;;;;;2034259;29;1823;-89
2021/11/16 04:11:53;;;;;;;;;;;;;;;;;;2027198;29;1293;-86
2021/11/16 04:12:55;;;;;;;;;;;;;;;;;;2035711;29;2027;-86
2021/11/16 04:13:57;;;;;;;;;;;;;;;;;;2050255;29;1119;-88
2021/11/16 04:14:57;;;;;;;;;;;;;;;;;;2050215;28;1348;-91
2021/11/16 04:15:59;;;;;;;;;;;;;;;;;;2035294;29;1218;-86
2021/11/16 04:17:00;;;;;;;;;;;;;;;;;;2034433;29;1217;-87
2021/11/16 04:18:02;;;;;;;;;;;;;;;;;;2042808;29;1314;-87
2021/11/16 04:19:03;;;;;;;;;;;;;;;;;;2042399;29;1182;-87
2021/11/16 04:20:05;;;;;;;;;;;;;;;;;;2042577;29;1332;-86
2021/11/16 04:21:06;;;;;;;;;;;;;;;;;;2046312;29;1940;-87
2021/11/16 04:22:07;;;;;;;;;;;;;;;;;;2042659;29;1361;-89
2021/11/16 04:23:09;;;;;;;;;;;;;;;;;;2042471;29;2054;-86
2021/11/16 04:24:11;;;;;;;;;;;;;;;;;;2042280;29;1297;-85
2021/11/16 04:25:13;;;;;;;;;;;;;;;;;;2042399;29;1433;-86
2021/11/16 04:26:15;;;;;;;;;;;;;;;;;;2035274;29;1831;-86
2021/11/16 04:27:16;;;;;;;;;;;;;;;;;;2034369;29;1892;-86
2021/11/16 04:28:18;;;;;;;;;;;;;;;;;;2035206;29;1824;-86
2021/11/16 04:29:19;;;;;;;;;;;;;;;;;;2034445;29;1195;-86
2021/11/16 04:30:22;;;;;;;;;;;;;;;;;;2034548;29;1225;-91
2021/11/16 04:31:22;;;;;;;;;;;;;;;;;;2030272;29;1848;-92
2021/11/16 04:32:24;;;;;;;;;;;;;;;;;;2034656;29;1285;-90
2021/11/16 04:33:26;;;;;;;;;;;;;;;;;;2034575;29;1209;-90
2021/11/16 04:34:27;;;;;;;;;;;;;;;;;;2042215;29;1338;-90
2021/11/16 04:35:29;;;;;;;;;;;;;;;;;;2042396;29;1143;-91
2021/11/16 04:36:31;;;;;;;;;;;;;;;;;;2035420;29;1917;-86
2021/11/16 04:37:32;;;;;;;;;;;;;;;;;;2042148;29;1251;-86
2021/11/16 04:38:33;;;;;;;;;;;;;;;;;;2032623;29;1960;-87
2021/11/16 04:39:34;;;;;;;;;;;;;;;;;;2042257;29;1247;-84
2021/11/16 04:40:40;;;;;;;;;;;;;;;;;;2050146;29;1353;-86
2021/11/16 04:41:43;;;;;;;;;;;;;;;;;;2043977;28;1867;-85
2021/11/16 04:42:45;;;;;;;;;;;;;;;;;;2042605;29;1289;-84
2021/11/16 04:43:46;;;;;;;;;;;;;;;;;;2038204;29;1261;-85
2021/11/16 04:44:48;;;;;;;;;;;;;;;;;;2034579;29;1338;-85
2021/11/16 04:45:51;;;;;;;;;;;;;;;;;;2042186;29;1338;-84
2021/11/16 04:46:53;;;;;;;;;;;;;;;;;;2049590;28;1312;-85
2021/11/16 04:47:59;;;;;;;;;;;;;;;;;;2048765;29;2034;-84
2021/11/16 04:49:04;;;;;;;;;;;;;;;;;;2048480;29;1428;-84
2021/11/16 04:50:11;;;;;;;;;;;;;;;;;;2050724;29;1242;-85
2021/11/16 04:52:37;;;;;;;;;;;;;;;;;;2042873;29;1390;-85
2021/11/16 04:55:29;;;;;;;;;;;;;;;;;;2027414;29;1422;-85
2021/11/16 05:03:28;;;;;;;;;;;;;;;;;;2026291;29;1964;-87
2021/11/16 05:04:29;;;;;;;;;;;;;;;;;;2042375;29;1338;-87
2021/11/16 05:05:31;;;;;;;;;;;;;;;;;;2042149;29;1448;-88
2021/11/16 05:06:32;;;;;;;;;;;;;;;;;;2034241;29;1391;-87
2021/11/16 05:07:34;;;;;;;;;;;;;;;;;;2042024;29;1915;-85
2021/11/16 05:08:34;;;;;;;;;;;;;;;;;;2034201;29;2059;-88
2021/11/16 05:09:36;;;;;;;;;;;;;;;;;;2042375;29;746;-87
2021/11/16 05:10:38;;;;;;;;;;;;;;;;;;2034348;29;1332;-86
2021/11/16 05:11:41;;;;;;;;;;;;;;;;;;2033859;29;1449;-87
2021/11/16 05:12:42;;;;;;;;;;;;;;;;;;2042169;29;1349;-87
2021/11/16 05:13:43;;;;;;;;;;;;;;;;;;2041510;29;1782;-86
2021/11/16 05:14:46;;;;;;;;;;;;;;;;;;2049785;28;1455;-86
2021/11/16 05:15:50;;;;;;;;;;;;;;;;;;2049947;29;1202;-87
2021/11/16 05:16:51;;;;;;;;;;;;;;;;;;2034192;29;1369;-86
2021/11/16 05:17:53;;;;;;;;;;;;;;;;;;2033165;29;1968;-86
2021/11/16 05:18:54;;;;;;;;;;;;;;;;;;2026742;29;1234;-85
2021/11/16 05:19:56;;;;;;;;;;;;;;;;;;2034287;29;1067;-85
2021/11/16 05:20:57;;;;;;;;;;;;;;;;;;2034248;29;2177;-93
2021/11/16 05:21:59;;;;;;;;;;;;;;;;;;2040712;29;1425;-86
2021/11/16 05:23:01;;;;;;;;;;;;;;;;;;2034208;29;1248;-85
2021/11/16 05:24:01;;;;;;;;;;;;;;;;;;2034117;29;1323;-84
2021/11/16 05:25:04;;;;;;;;;;;;;;;;;;2042791;29;798;-85
2021/11/16 05:26:04;;;;;;;;;;;;;;;;;;2039577;29;1993;-83
2021/11/16 05:27:08;;;;;;;;;;;;;;;;;;2046556;29;1326;-84
2021/11/16 05:28:10;;;;;;;;;;;;;;;;;;2041364;29;1902;-85
2021/11/16 05:29:11;;;;;;;;;;;;;;;;;;2033801;29;1450;-84
2021/11/16 05:30:14;;;;;;;;;;;;;;;;;;2041782;29;1262;-86
2021/11/16 05:31:16;;;;;;;;;;;;;;;;;;2033743;29;1334;-84
2021/11/16 05:32:18;;;;;;;;;;;;;;;;;;2034136;29;1366;-84
2021/11/16 05:33:18;;;;;;;;;;;;;;;;;;2037967;29;1211;-85
2021/11/16 05:34:20;;;;;;;;;;;;;;;;;;2037782;29;1388;-85
2021/11/16 05:35:21;;;;;;;;;;;;;;;;;;2033505;29;1358;-84
2021/11/16 05:36:23;;;;;;;;;;;;;;;;;;2049046;29;1460;-83
2021/11/16 05:37:23;;;;;;;;;;;;;;;;;;2048618;29;1491;-82
2021/11/16 05:38:26;;;;;;;;;;;;;;;;;;2031386;29;1765;-82
2021/11/16 05:39:26;;;;;;;;;;;;;;;;;;2026067;29;1482;-85
2021/11/16 05:40:28;;;;;;;;;;;;;;;;;;2046713;28;1290;-81
2021/11/16 05:41:29;;;;;;;;;;;;;;;;;;2049280;28;1300;-84
2021/11/16 05:42:32;;;;;;;;;;;;;;;;;;2042504;29;805;-85
2021/11/16 05:43:33;;;;;;;;;;;;;;;;;;2042750;29;891;-83
2021/11/16 05:44:35;;;;;;;;;;;;;;;;;;2042510;29;1807;-87
2021/11/16 05:45:36;;;;;;;;;;;;;;;;;;2042148;29;1241;-84
2021/11/16 05:46:38;;;;;;;;;;;;;;;;;;2042328;29;1443;-85
2021/11/16 05:47:41;;;;;;;;;;;;;;;;;;2041517;29;1924;-83
2021/11/16 05:48:43;;;;;;;;;;;;;;;;;;2034562;29;1927;-88
2021/11/16 05:49:44;;;;;;;;;;;;;;;;;;2033630;29;1316;-85
2021/11/16 05:50:45;;;;;;;;;;;;;;;;;;2033628;29;1242;-83
2021/11/16 05:51:47;;;;;;;;;;;;;;;;;;2033224;29;2002;-83
2021/11/16 05:52:49;;;;;;;;;;;;;;;;;;2033838;29;988;-84
2021/11/16 05:53:52;;;;;;;;;;;;;;;;;;2041451;29;1543;-84
2021/11/16 05:54:54;;;;;;;;;;;;;;;;;;2041167;29;1271;-82
2021/11/16 05:55:55;;;;;;;;;;;;;;;;;;2033603;29;1321;-83
2021/11/16 05:56:57;;;;;;;;;;;;;;;;;;2033636;29;1314;-82
2021/11/16 05:57:59;;;;;;;;;;;;;;;;;;2033434;29;1265;-84
2021/11/16 05:59:01;;;;;;;;;;;;;;;;;;2041854;29;1510;-84
2021/11/16 06:00:03;;;;;;;;;;;;;;;;;;2042865;29;1450;-83
2021/11/16 06:01:10;;;;;;;;;;;;;;;;;;2035417;29;1960;-83
2021/11/16 06:02:11;;;;;;;;;;;;;;;;;;2035946;29;913;-84
2021/11/16 06:03:13;;;;;;;;;;;;;;;;;;2027916;29;1987;-83
2021/11/16 06:04:13;;;;;;;;;;;;;;;;;;2027612;29;1586;-84
2021/11/16 06:05:15;;;;;;;;;;;;;;;;;;2035046;29;1215;-84
2021/11/16 06:06:18;;;;;;;;;;;;;;;;;;2042697;29;1858;-83
2021/11/16 06:07:19;;;;;;;;;;;;;;;;;;2042788;29;1283;-83
2021/11/16 06:08:20;;;;;;;;;;;;;;;;;;2030306;29;2009;-84
2021/11/16 06:09:22;;;;;;;;;;;;;;;;;;2027016;29;1072;-83
2021/11/16 06:10:23;;;;;;;;;;;;;;;;;;2035975;29;1066;-83
2021/11/16 06:11:25;;;;;;;;;;;;;;;;;;2035834;29;842;-84
2021/11/16 06:12:26;;;;;;;;;;;;;;;;;;2040039;29;1764;-84
2021/11/16 06:13:28;;;;;;;;;;;;;;;;;;2038696;29;1922;-89
2021/11/16 06:14:30;;;;;;;;;;;;;;;;;;2034532;29;1198;-83
2021/11/16 06:15:31;;;;;;;;;;;;;;;;;;2040351;29;1523;-83
2021/11/16 06:16:33;;;;;;;;;;;;;;;;;;2042793;29;1336;-85
2021/11/16 06:17:33;;;;;;;;;;;;;;;;;;2042057;29;1290;-85
2021/11/16 06:18:35;;;;;;;;;;;;;;;;;;2044706;28;1814;-83
2021/11/16 06:19:38;;;;;;;;;;;;;;;;;;2049314;29;1298;-84
2021/11/16 06:20:41;;;;;;;;;;;;;;;;;;2043020;29;1325;-87
2021/11/16 06:21:42;;;;;;;;;;;;;;;;;;2042385;29;1747;-84
2021/11/16 06:22:44;;;;;;;;;;;;;;;;;;2043160;29;1051;-85
2021/11/16 06:23:45;;;;;;;;;;;;;;;;;;2042961;29;1282;-84
2021/11/16 06:24:47;;;;;;;;;;;;;;;;;;2043152;29;1218;-85
2021/11/16 06:25:47;;;;;;;;;;;;;;;;;;2042822;29;1313;-83
2021/11/16 06:26:49;;;;;;;;;;;;;;;;;;2043087;29;1357;-83
2021/11/16 06:27:50;;;;;;;;;;;;;;;;;;2043048;29;1706;-83
2021/11/16 06:28:53;;;;;;;;;;;;;;;;;;2043105;29;1978;-83
2021/11/16 06:29:54;;;;;;;;;;;;;;;;;;2042784;29;1404;-83
2021/11/16 06:30:55;;;;;;;;;;;;;;;;;;2035778;29;1858;-83
2021/11/16 06:31:57;;;;;;;;;;;;;;;;;;2035239;29;917;-83
2021/11/16 06:32:57;;;;;;;;;;;;;;;;;;2035261;29;1864;-90
2021/11/16 06:34:00;;;;;;;;;;;;;;;;;;2035367;29;1055;-84
2021/11/16 06:35:00;;;;;;;;;;;;;;;;;;2035135;29;1312;-85
2021/11/16 06:36:02;;;;;;;;;;;;;;;;;;2036694;29;1936;-85
2021/11/16 06:37:05;;;;;;;;;;;;;;;;;;2050735;29;1234;-84
2021/11/16 06:38:05;;;;;;;;;;;;;;;;;;2049717;29;2081;-83
2021/11/16 06:39:08;;;;;;;;;;;;;;;;;;2042773;29;1535;-84
2021/11/16 06:40:08;;;;;;;;;;;;;;;;;;2043143;29;1047;-83
2021/11/16 06:41:10;;;;;;;;;;;;;;;;;;2044864;29;1893;-83
2021/11/16 06:42:13;;;;;;;;;;;;;;;;;;2051148;29;1049;-83
2021/11/16 06:43:19;;;;;;;;;;;;;;;;;;2035633;29;1925;-83
2021/11/16 06:44:23;;;;;;;;;;;;;;;;;;2032241;29;1609;-83
2021/11/16 06:45:23;;;;;;;;;;;;;;;;;;2042575;29;1504;-84
2021/11/16 06:46:25;;;;;;;;;;;;;;;;;;2038835;29;1909;-84
2021/11/16 06:47:25;;;;;;;;;;;;;;;;;;2034867;29;1277;-83
2021/11/16 06:48:27;;;;;;;;;;;;;;;;;;2034640;29;1981;-83
2021/11/16 06:49:29;;;;;;;;;;;;;;;;;;2034927;29;1296;-84
2021/11/16 06:50:30;;;;;;;;;;;;;;;;;;2035017;29;1274;-83
2021/11/16 06:51:37;;;;;;;;;;;;;;;;;;2034608;29;1796;-83
2021/11/16 06:52:38;;;;;;;;;;;;;;;;;;2035273;29;1017;-82
2021/11/16 06:53:40;;;;;;;;;;;;;;;;;;2042436;29;2038;-83
2021/11/16 06:54:40;;;;;;;;;;;;;;;;;;2034661;29;1323;-85
2021/11/16 06:55:42;;;;;;;;;;;;;;;;;;2034921;29;1012;-83
2021/11/16 06:56:45;;;;;;;;;;;;;;;;;;2030378;29;1821;-83
2021/11/16 06:57:47;;;;;;;;;;;;;;;;;;2026961;29;1929;-85
2021/11/16 06:58:48;;;;;;;;;;;;;;;;;;2034387;29;1414;-82
2021/11/16 06:59:51;;;;;;;;;;;;;;;;;;2042553;29;1281;-83
2021/11/16 07:00:52;;;;;;;;;;;;;;;;;;2042051;29;1780;-86
2021/11/16 07:01:55;;;;;;;;;;;;;;;;;;2040620;29;1849;-83
2021/11/16 07:02:56;;;;;;;;;;;;;;;;;;2036370;29;1791;-84
2021/11/16 07:04:03;;;;;;;;;;;;;;;;;;2031155;29;1626;-88
2021/11/16 07:05:08;;;;;;;;;;;;;;;;;;2035029;29;1322;-84
2021/11/16 07:06:09;;;;;;;;;;;;;;;;;;2033116;29;1982;-86
2021/11/16 07:07:10;;;;;;;;;;;;;;;;;;2026932;29;1247;-83
2021/11/16 07:08:12;;;;;;;;;;;;;;;;;;2020617;29;1923;-84
2021/11/16 07:09:14;;;;;;;;;;;;;;;;;;2019714;29;1474;-83
2021/11/16 07:10:19;;;;;;;;;;;;;;;;;;2042573;29;1223;-83
2021/11/16 07:11:21;;;;;;;;;;;;;;;;;;2038163;29;2085;-84
2021/11/16 07:12:24;;;;;;;;;;;;;;;;;;2034678;29;1205;-85
2021/11/16 07:13:26;;;;;;;;;;;;;;;;;;2039462;29;1879;-83
2021/11/16 07:14:36;;;;;;;;;;;;;;;;;;2026780;29;1201;-84
2021/11/16 07:15:39;;;;;;;;;;;;;;;;;;2035757;29;1361;-83
2021/11/16 07:16:42;;;;;;;;;;;;;;;;;;2036408;29;1858;-83
2021/11/16 07:17:42;;;;;;;;;;;;;;;;;;2032888;29;1498;-84
2021/11/16 07:18:49;;;;;;;;;;;;;;;;;;2034919;29;1912;-84
2021/11/16 07:19:53;;;;;;;;;;;;;;;;;;2030324;29;1556;-85
2021/11/16 07:20:57;;;;;;;;;;;;;;;;;;2026694;29;1848;-85